KLHQKIMS

Guest
Details From KLHQ - FAIRFIELD CO
To KIMS - Madison Muni
Flight Number -
Tags generated
Created
Modified
Stats Distance 144 nm / 266 km
Max Altitude 14,700 ft / 4,481 m
Waypoints 4
Social Downloads 0
Likes 0
Share VATSIM

Download

Looking for another format? Having issues loading an existing format? Contact us
Advertisement - Login to hide

Notes

Basic altitude profile: - Ascent Rate: 2500ft/min - Ascent Speed: 250kts - Cruise Altitude: 35000ft - Cruise Speed: 420kts - Descent Rate: 1500ft/min - Descent Speed: 250kts Options: - Use NATs: yes - Use PACOTS: yes - Use low airways: yes - Use high airways: yes

Route

KLHQ HEDEN V19 CVG KIMS

ID Type Via Altitude Latitude Longitude Leg Dist Tot Dist Heading (true) Name
O KLHQ APT - 0 ft / 0 m 39.75564˚ -82.65710˚ - 0 nm - FAIRFIELD CO
HEDEN FIX - 14,700 ft / 4,481 m 39.27913˚ -84.03399˚ 69 nm 69 nm 246° / 245° -
CVG VOR V19 (AWY-LO) 8,300 ft / 2,530 m 39.01597˚ -84.70333˚ 34 nm 104 nm 243° / 243° CINCINNATI VORTAC
O KIMS APT - 0 ft / 0 m 38.75984˚ -85.46475˚ 38 nm 143 nm 247° / 246° Madison Muni

Altitude Profile

Advertisement - Login to hide

KLHQ

Details ICAO KLHQ
Name FAIRFIELD CO
Region United States
Timezone America/New_York (UTC-5.0)
Stats Elevation 868 ft / 265 m (AMSL)
Location 39.755639° -82.657095°
Runways 1
Magnetic Variation 7.318° W

METAR

KLHQ 111653Z AUTO 20008KT 10SM OVC085 01/M05 A2999 RMK AO2 PRESFR SLP164 T00111050

Decode

TAF

Not found

Departure Runways

ID Width Length Bearing (true) Bearing (mag) Surface Threshold Offset Overrun Length
10 75 ft / 23 m 4,993 ft / 1,522 m 94.04° 101.36° Asphalt 0 ft / 0 m 0 ft / 0 m
28 75 ft / 23 m 4,993 ft / 1,522 m 274.05° 281.37° Asphalt 279 ft / 85 m 0 ft / 0 m

KIMS

Details ICAO KIMS
Name Madison Muni
Region United States
Timezone America/Indiana/Indianapolis (UTC-5.0)
Stats Elevation 817 ft / 249 m (AMSL)
Location 38.759839° -85.464754°
Runways 1
Magnetic Variation 5.099° W

METAR

KIMS 111655Z AUTO 20008KT 10SM CLR 05/M02 A3001 RMK AO1

Decode

TAF

Not found

Destination Runways

ID Width Length Bearing (true) Bearing (mag) Surface Threshold Offset Overrun Length
03 75 ft / 23 m 4,403 ft / 1,342 m 31.65° 36.75° Asphalt 0 ft / 0 m 0 ft / 0 m
21 75 ft / 23 m 4,403 ft / 1,342 m 211.65° 216.75° Asphalt 0 ft / 0 m 0 ft / 0 m